BEE100 EGTE-EGJJ
Flight info
| Callsign | BEE100 |
|---|---|
| Flight time | 0h 32m |
| Altitude | 8000 |
| Route | DAWLY L149 BIGNO |
| Aircraft | DH8D/M-SDE2E3FGRY/H |
Departure
| Time | 2026-04-21 08:53 |
|---|---|
| Airport | Exeter International Airport (EGTE) |
Arrival
| Time | 2026-04-21 09:26 |
|---|---|
| Airport | Jersey Airport (EGJJ) |
| Time | Latitude | Longitude | Altitude | Speed | Heading |
|---|---|---|---|---|---|
| 2026-04-21 08:39 | 50.73154 | -3.41735 | 108 ft | 0 kts | 130° |
| 2026-04-21 08:44 | 50.73167 | -3.41755 | 108 ft | 4 kts | 149° |
| 2026-04-21 08:44 | 50.73189 | -3.41761 | 108 ft | 4 kts | 206° |
| 2026-04-21 08:44 | 50.73204 | -3.41738 | 108 ft | 1 kts | 239° |
| 2026-04-21 08:44 | 50.73206 | -3.41732 | 108 ft | 0 kts | 239° |
| 2026-04-21 08:45 | 50.73207 | -3.41731 | 108 ft | 0 kts | 239° |
| 2026-04-21 08:46 | 50.73208 | -3.41728 | 108 ft | 0 kts | 239° |
| 2026-04-21 08:46 | 50.73209 | -3.41725 | 108 ft | 0 kts | 239° |
| 2026-04-21 08:46 | 50.73210 | -3.41723 | 108 ft | 0 kts | 239° |
| 2026-04-21 08:46 | 50.73210 | -3.41722 | 108 ft | 0 kts | 239° |
| 2026-04-21 08:48 | 50.73209 | -3.41724 | 108 ft | 1 kts | 239° |
| 2026-04-21 08:48 | 50.73193 | -3.41768 | 108 ft | 6 kts | 239° |
| 2026-04-21 08:49 | 50.73170 | -3.41828 | 108 ft | 7 kts | 238° |
| 2026-04-21 08:49 | 50.73142 | -3.41898 | 108 ft | 8 kts | 237° |
| 2026-04-21 08:49 | 50.73118 | -3.41974 | 108 ft | 8 kts | 247° |
| 2026-04-21 08:49 | 50.73096 | -3.42052 | 108 ft | 9 kts | 243° |
| 2026-04-21 08:50 | 50.73062 | -3.42147 | 108 ft | 9 kts | 241° |
| 2026-04-21 08:50 | 50.73059 | -3.42255 | 108 ft | 12 kts | 280° |
| 2026-04-21 08:50 | 50.73064 | -3.42403 | 108 ft | 15 kts | 270° |
| 2026-04-21 08:50 | 50.73066 | -3.42554 | 108 ft | 12 kts | 275° |
| 2026-04-21 08:51 | 50.73090 | -3.42669 | 108 ft | 11 kts | 309° |
| 2026-04-21 08:51 | 50.73139 | -3.42752 | 108 ft | 10 kts | 324° |
| 2026-04-21 08:51 | 50.73198 | -3.42748 | 108 ft | 9 kts | 52° |
| 2026-04-21 08:51 | 50.73219 | -3.42659 | 108 ft | 8 kts | 75° |
| 2026-04-21 08:52 | 50.73222 | -3.42643 | 108 ft | 0 kts | 74° |
| 2026-04-21 08:53 | 50.73229 | -3.42605 | 108 ft | 22 kts | 74° |
| 2026-04-21 08:53 | 50.73341 | -3.41936 | 108 ft | 100 kts | 75° |
| 2026-04-21 08:53 | 50.73557 | -3.40646 | 352 ft | 128 kts | 72° |
| 2026-04-21 08:53 | 50.73740 | -3.39270 | 1001 ft | 136 kts | 89° |
| 2026-04-21 08:54 | 50.73321 | -3.37828 | 1533 ft | 156 kts | 130° |
| 2026-04-21 08:54 | 50.72275 | -3.37074 | 2005 ft | 180 kts | 167° |
| 2026-04-21 08:54 | 50.71017 | -3.37498 | 2708 ft | 195 kts | 201° |
| 2026-04-21 08:54 | 50.69938 | -3.38873 | 3403 ft | 202 kts | 217° |
| 2026-04-21 08:55 | 50.68891 | -3.40422 | 4115 ft | 203 kts | 212° |
| 2026-04-21 08:55 | 50.67702 | -3.41714 | 4837 ft | 202 kts | 202° |
| 2026-04-21 08:55 | 50.66395 | -3.42701 | 5565 ft | 202 kts | 195° |
| 2026-04-21 08:55 | 50.65053 | -3.43466 | 6302 ft | 204 kts | 192° |
| 2026-04-21 08:56 | 50.63721 | -3.44121 | 7010 ft | 205 kts | 190° |
| 2026-04-21 08:56 | 50.62387 | -3.44693 | 7677 ft | 212 kts | 188° |
| 2026-04-21 08:56 | 50.61025 | -3.45190 | 7919 ft | 235 kts | 187° |
| 2026-04-21 08:56 | 50.59256 | -3.45573 | 7981 ft | 256 kts | 174° |
| 2026-04-21 08:57 | 50.57539 | -3.44888 | 7994 ft | 270 kts | 152° |
| 2026-04-21 08:57 | 50.55980 | -3.43341 | 7996 ft | 280 kts | 140° |
| 2026-04-21 08:57 | 50.54531 | -3.41386 | 7992 ft | 286 kts | 135° |
| 2026-04-21 08:57 | 50.53118 | -3.39298 | 7985 ft | 283 kts | 134° |
| 2026-04-21 08:58 | 50.51762 | -3.37191 | 7987 ft | 277 kts | 132° |
| 2026-04-21 08:58 | 50.50483 | -3.35127 | 7978 ft | 263 kts | 131° |
| 2026-04-21 08:58 | 50.49266 | -3.33111 | 7989 ft | 257 kts | 131° |
| 2026-04-21 08:58 | 50.48089 | -3.31147 | 7989 ft | 257 kts | 130° |
| 2026-04-21 08:59 | 50.46945 | -3.29238 | 7989 ft | 257 kts | 131° |
| 2026-04-21 08:59 | 50.46181 | -3.27968 | 7988 ft | 257 kts | 131° |
| 2026-04-21 08:59 | 50.44630 | -3.25409 | 7988 ft | 256 kts | 131° |
| 2026-04-21 08:59 | 50.43359 | -3.23325 | 7987 ft | 256 kts | 131° |
| 2026-04-21 09:00 | 50.42137 | -3.21327 | 7986 ft | 257 kts | 131° |
| 2026-04-21 09:00 | 50.40898 | -3.19308 | 7985 ft | 257 kts | 131° |
| 2026-04-21 09:00 | 50.39673 | -3.17313 | 7995 ft | 257 kts | 131° |
| 2026-04-21 09:00 | 50.38461 | -3.15341 | 8052 ft | 255 kts | 131° |
| 2026-04-21 09:01 | 50.37216 | -3.13498 | 8073 ft | 256 kts | 139° |
| 2026-04-21 09:01 | 50.35725 | -3.11964 | 8084 ft | 259 kts | 147° |
| 2026-04-21 09:01 | 50.34170 | -3.10639 | 8087 ft | 259 kts | 149° |
| 2026-04-21 09:01 | 50.32568 | -3.09317 | 8087 ft | 260 kts | 149° |
| 2026-04-21 09:02 | 50.30968 | -3.08007 | 8086 ft | 261 kts | 149° |
| 2026-04-21 09:02 | 50.29360 | -3.06691 | 8085 ft | 261 kts | 149° |
| 2026-04-21 09:02 | 50.27762 | -3.05376 | 8084 ft | 262 kts | 149° |
| 2026-04-21 09:03 | 50.24593 | -3.02758 | 8081 ft | 263 kts | 149° |
| 2026-04-21 09:03 | 50.22995 | -3.01435 | 8079 ft | 263 kts | 149° |
| 2026-04-21 09:03 | 50.21393 | -3.00108 | 8078 ft | 263 kts | 149° |
| 2026-04-21 09:03 | 50.20318 | -2.99219 | 8076 ft | 264 kts | 149° |
| 2026-04-21 09:04 | 50.18706 | -2.97886 | 8075 ft | 264 kts | 149° |
| 2026-04-21 09:04 | 50.17110 | -2.96567 | 8073 ft | 264 kts | 149° |
| 2026-04-21 09:04 | 50.15497 | -2.95234 | 8071 ft | 265 kts | 149° |
| 2026-04-21 09:04 | 50.13899 | -2.93908 | 8070 ft | 265 kts | 149° |
| 2026-04-21 09:05 | 50.12297 | -2.92586 | 8068 ft | 265 kts | 149° |
| 2026-04-21 09:05 | 50.10679 | -2.91257 | 8066 ft | 265 kts | 149° |
| 2026-04-21 09:05 | 50.09055 | -2.89925 | 8064 ft | 266 kts | 149° |
| 2026-04-21 09:05 | 50.07440 | -2.88601 | 8061 ft | 265 kts | 149° |
| 2026-04-21 09:06 | 50.05853 | -2.87300 | 8060 ft | 264 kts | 149° |
| 2026-04-21 09:06 | 50.04268 | -2.86000 | 8058 ft | 263 kts | 149° |
| 2026-04-21 09:06 | 50.02683 | -2.84701 | 8056 ft | 263 kts | 149° |
| 2026-04-21 09:06 | 50.01119 | -2.83420 | 8054 ft | 262 kts | 149° |
| 2026-04-21 09:07 | 49.99493 | -2.82304 | 8052 ft | 263 kts | 158° |
| 2026-04-21 09:07 | 49.97784 | -2.81515 | 8051 ft | 264 kts | 162° |
| 2026-04-21 09:07 | 49.96150 | -2.80863 | 8049 ft | 263 kts | 163° |
| 2026-04-21 09:07 | 49.95857 | -2.80750 | 8049 ft | 263 kts | 163° |
| 2026-04-21 09:08 | 49.94715 | -2.80312 | 8048 ft | 263 kts | 163° |
| 2026-04-21 09:08 | 49.93050 | -2.79682 | 8046 ft | 263 kts | 163° |
| 2026-04-21 09:08 | 49.91365 | -2.79042 | 8044 ft | 263 kts | 163° |
| 2026-04-21 09:08 | 49.89679 | -2.78394 | 8042 ft | 262 kts | 163° |
| 2026-04-21 09:09 | 49.87992 | -2.77738 | 8041 ft | 262 kts | 163° |
| 2026-04-21 09:09 | 49.86351 | -2.77093 | 8039 ft | 262 kts | 163° |
| 2026-04-21 09:09 | 49.84720 | -2.76450 | 8038 ft | 262 kts | 163° |
| 2026-04-21 09:09 | 49.83088 | -2.75804 | 8036 ft | 261 kts | 163° |
| 2026-04-21 09:10 | 49.81444 | -2.75153 | 8035 ft | 261 kts | 163° |
| 2026-04-21 09:10 | 49.79798 | -2.74503 | 8034 ft | 261 kts | 163° |
| 2026-04-21 09:10 | 49.78166 | -2.73858 | 8032 ft | 261 kts | 163° |
| 2026-04-21 09:10 | 49.76528 | -2.73213 | 8031 ft | 261 kts | 163° |
| 2026-04-21 09:11 | 49.74905 | -2.72574 | 8030 ft | 261 kts | 163° |
| 2026-04-21 09:11 | 49.73281 | -2.71935 | 8030 ft | 261 kts | 163° |
| 2026-04-21 09:11 | 49.71674 | -2.71303 | 8029 ft | 261 kts | 163° |
| 2026-04-21 09:11 | 49.70073 | -2.70675 | 8026 ft | 261 kts | 163° |
| 2026-04-21 09:12 | 49.68443 | -2.70035 | 8024 ft | 261 kts | 163° |
| 2026-04-21 09:12 | 49.66767 | -2.69378 | 8023 ft | 260 kts | 163° |
| 2026-04-21 09:12 | 49.65091 | -2.68720 | 8022 ft | 260 kts | 163° |
| 2026-04-21 09:12 | 49.63421 | -2.68067 | 8022 ft | 260 kts | 163° |
| 2026-04-21 09:13 | 49.61750 | -2.67413 | 8022 ft | 260 kts | 163° |
| 2026-04-21 09:13 | 49.60089 | -2.66763 | 8021 ft | 260 kts | 163° |
| 2026-04-21 09:13 | 49.58389 | -2.66099 | 8021 ft | 260 kts | 163° |
| 2026-04-21 09:13 | 49.56688 | -2.65434 | 8021 ft | 259 kts | 163° |
| 2026-04-21 09:14 | 49.54971 | -2.64765 | 8021 ft | 259 kts | 163° |
| 2026-04-21 09:14 | 49.53249 | -2.64093 | 8021 ft | 259 kts | 163° |
| 2026-04-21 09:14 | 49.52593 | -2.63837 | 8021 ft | 259 kts | 163° |
| 2026-04-21 09:14 | 49.50877 | -2.63169 | 8021 ft | 259 kts | 163° |
| 2026-04-21 09:15 | 49.49142 | -2.62493 | 8021 ft | 259 kts | 163° |
| 2026-04-21 09:15 | 49.47409 | -2.61819 | 8021 ft | 258 kts | 163° |
| 2026-04-21 09:15 | 49.45677 | -2.61146 | 8021 ft | 258 kts | 163° |
| 2026-04-21 09:15 | 49.43951 | -2.60441 | 7766 ft | 255 kts | 160° |
| 2026-04-21 09:16 | 49.42345 | -2.59502 | 7336 ft | 245 kts | 154° |
| 2026-04-21 09:16 | 49.40856 | -2.58474 | 6929 ft | 236 kts | 152° |
| 2026-04-21 09:16 | 49.39407 | -2.57447 | 6534 ft | 227 kts | 152° |
| 2026-04-21 09:16 | 49.38042 | -2.56472 | 6163 ft | 219 kts | 151° |
| 2026-04-21 09:17 | 49.36715 | -2.55535 | 5799 ft | 212 kts | 152° |
| 2026-04-21 09:17 | 49.35398 | -2.54701 | 5423 ft | 207 kts | 154° |
| 2026-04-21 09:17 | 49.34085 | -2.53938 | 5033 ft | 202 kts | 154° |
| 2026-04-21 09:17 | 49.32789 | -2.53225 | 4637 ft | 199 kts | 155° |
| 2026-04-21 09:18 | 49.31512 | -2.52548 | 4237 ft | 196 kts | 155° |
| 2026-04-21 09:18 | 49.30255 | -2.51896 | 3837 ft | 193 kts | 154° |
| 2026-04-21 09:18 | 49.29032 | -2.51246 | 3442 ft | 190 kts | 153° |
| 2026-04-21 09:18 | 49.27806 | -2.50577 | 3133 ft | 181 kts | 152° |
| 2026-04-21 09:19 | 49.26671 | -2.49964 | 2860 ft | 172 kts | 152° |
| 2026-04-21 09:19 | 49.25600 | -2.49359 | 2548 ft | 163 kts | 149° |
| 2026-04-21 09:19 | 49.24561 | -2.48665 | 2243 ft | 167 kts | 148° |
| 2026-04-21 09:19 | 49.23530 | -2.47938 | 2067 ft | 159 kts | 147° |
| 2026-04-21 09:20 | 49.22568 | -2.47258 | 1996 ft | 145 kts | 147° |
| 2026-04-21 09:20 | 49.21721 | -2.46679 | 1959 ft | 133 kts | 146° |
| 2026-04-21 09:20 | 49.20866 | -2.46107 | 1986 ft | 136 kts | 147° |
| 2026-04-21 09:20 | 49.20025 | -2.45472 | 1987 ft | 132 kts | 133° |
| 2026-04-21 09:21 | 49.19552 | -2.44325 | 1997 ft | 126 kts | 99° |
| 2026-04-21 09:21 | 49.19470 | -2.42981 | 2002 ft | 131 kts | 89° |
| 2026-04-21 09:21 | 49.19463 | -2.42045 | 2001 ft | 135 kts | 89° |
| 2026-04-21 09:21 | 49.19458 | -2.40977 | 1999 ft | 139 kts | 89° |
| 2026-04-21 09:22 | 49.19467 | -2.39471 | 1999 ft | 143 kts | 88° |
| 2026-04-21 09:22 | 49.19496 | -2.37972 | 1998 ft | 147 kts | 87° |
| 2026-04-21 09:22 | 49.19546 | -2.36420 | 1997 ft | 150 kts | 86° |
| 2026-04-21 09:22 | 49.19616 | -2.34842 | 1989 ft | 149 kts | 85° |
| 2026-04-21 09:23 | 49.19704 | -2.33303 | 1918 ft | 144 kts | 84° |
| 2026-04-21 09:23 | 49.19807 | -2.31790 | 1788 ft | 141 kts | 84° |
| 2026-04-21 09:23 | 49.19914 | -2.30364 | 1519 ft | 129 kts | 83° |
| 2026-04-21 09:23 | 49.20013 | -2.29094 | 1322 ft | 116 kts | 83° |
| 2026-04-21 09:24 | 49.20099 | -2.27913 | 1223 ft | 109 kts | 83° |
| 2026-04-21 09:24 | 49.20192 | -2.26775 | 1088 ft | 106 kts | 82° |
| 2026-04-21 09:24 | 49.20286 | -2.25659 | 951 ft | 104 kts | 82° |
| 2026-04-21 09:24 | 49.20381 | -2.24547 | 813 ft | 106 kts | 81° |
| 2026-04-21 09:25 | 49.20476 | -2.23412 | 670 ft | 109 kts | 82° |
| 2026-04-21 09:25 | 49.20572 | -2.22264 | 522 ft | 108 kts | 83° |
| 2026-04-21 09:25 | 49.20664 | -2.21138 | 382 ft | 105 kts | 82° |
| 2026-04-21 09:25 | 49.20752 | -2.20049 | 286 ft | 95 kts | 83° |
| 2026-04-21 09:26 | 49.20814 | -2.19331 | 285 ft | 33 kts | 85° |
| 2026-04-21 09:26 | 49.20803 | -2.19098 | 285 ft | 11 kts | 105° |
| 2026-04-21 09:26 | 49.20794 | -2.19054 | 285 ft | 2 kts | 107° |
| 2026-04-21 09:26 | 49.20788 | -2.19021 | 285 ft | 5 kts | 108° |
| 2026-04-21 09:27 | 49.20765 | -2.18924 | 285 ft | 13 kts | 113° |
| 2026-04-21 09:27 | 49.20720 | -2.18860 | 285 ft | 8 kts | 195° |
| 2026-04-21 09:27 | 49.20692 | -2.18953 | 285 ft | 11 kts | 261° |
| 2026-04-21 09:27 | 49.20682 | -2.19059 | 285 ft | 10 kts | 263° |
| 2026-04-21 09:28 | 49.20674 | -2.19161 | 285 ft | 9 kts | 268° |
| 2026-04-21 09:28 | 49.20683 | -2.19255 | 285 ft | 9 kts | 285° |
| 2026-04-21 09:28 | 49.20699 | -2.19339 | 285 ft | 8 kts | 285° |
| 2026-04-21 09:28 | 49.20708 | -2.19421 | 285 ft | 9 kts | 266° |
| 2026-04-21 09:29 | 49.20694 | -2.19543 | 285 ft | 14 kts | 258° |
| 2026-04-21 09:29 | 49.20647 | -2.19658 | 285 ft | 12 kts | 219° |
| 2026-04-21 09:29 | 49.20608 | -2.19761 | 285 ft | 11 kts | 261° |
| 2026-04-21 09:29 | 49.20600 | -2.19871 | 285 ft | 10 kts | 264° |
| 2026-04-21 09:30 | 49.20558 | -2.19929 | 285 ft | 9 kts | 177° |
| 2026-04-21 09:30 | 49.20502 | -2.19921 | 285 ft | 8 kts | 173° |
| 2026-04-21 09:30 | 49.20451 | -2.19912 | 285 ft | 7 kts | 172° |
| 2026-04-21 09:30 | 49.20428 | -2.19873 | 285 ft | 4 kts | 96° |
| 2026-04-21 09:31 | 49.20427 | -2.19848 | 285 ft | 4 kts | 90° |
| 2026-04-21 09:31 | 49.20438 | -2.19746 | 285 ft | 10 kts | 70° |
| 2026-04-21 09:31 | 49.20462 | -2.19729 | 285 ft | 4 kts | 357° |
| 2026-04-21 09:31 | 49.20481 | -2.19731 | 285 ft | 3 kts | 355° |
| 2026-04-21 09:32 | 49.20491 | -2.19733 | 285 ft | 2 kts | 354° |
| 2026-04-21 09:32 | 49.20492 | -2.19733 | 285 ft | 0 kts | 354° |